Time;durP1;ratioP1;P1;durP2;ratioP2;P2;SDS_P1;SDS_P2;PMS_P1;PMS_P2;Temp;Humidity;BMP_temperature;BMP_pressure;BME280_temperature;BME280_humidity;BME280_pressure;Samples;Min_cycle;Max_cycle;Signal;HPM_P1;HPM_P2
2021/03/05 00:01:16;;;;;;;24.42;14.10;;;;;;;;;;5135700;27;20192;-61
2021/03/05 00:03:43;;;;;;;20.50;13.70;;;;;;;;;;5135625;27;20536;-62
2021/03/05 00:06:10;;;;;;;21.75;13.50;;;;;;;;;;5133801;27;20211;-61
2021/03/05 00:08:36;;;;;;;21.83;15.23;;;;;;;;;;5136125;27;20318;-62
2021/03/05 00:11:03;;;;;;;24.33;14.80;;;;;;;;;;5135586;27;20283;-62
2021/03/05 00:13:30;;;;;;;23.80;13.70;;;;;;;;;;5135774;27;20232;-62
2021/03/05 00:15:57;;;;;;;21.77;14.68;;;;;;;;;;5135375;27;20188;-62
2021/03/05 00:18:24;;;;;;;22.65;13.98;;;;;;;;;;5135308;27;20676;-62
2021/03/05 00:20:52;;;;;;;18.33;13.95;;;;;;;;;;5135469;27;20248;-62
2021/03/05 00:23:19;;;;;;;19.63;13.65;;;;;;;;;;5134971;27;20204;-62
2021/03/05 00:25:46;;;;;;;19.38;13.50;;;;;;;;;;5135413;27;20196;-62
2021/03/05 00:28:12;;;;;;;20.92;13.68;;;;;;;;;;5135140;27;20196;-62
2021/03/05 00:30:39;;;;;;;19.05;12.88;;;;;;;;;;5135316;27;20191;-62
2021/03/05 00:33:08;;;;;;;21.15;13.68;;;;;;;;;;5134614;27;20243;-62
2021/03/05 00:35:34;;;;;;;17.35;13.73;;;;;;;;;;5133257;27;20218;-62
2021/03/05 00:38:01;;;;;;;17.05;12.43;;;;;;;;;;5134637;27;20669;-62
2021/03/05 00:40:28;;;;;;;18.73;12.23;;;;;;;;;;5135025;27;20287;-62
2021/03/05 00:42:54;;;;;;;17.05;11.10;;;;;;;;;;5135072;27;20200;-61
2021/03/05 00:45:22;;;;;;;16.55;12.20;;;;;;;;;;5135027;27;20189;-62
2021/03/05 00:47:48;;;;;;;16.50;11.32;;;;;;;;;;5135258;27;20192;-62
2021/03/05 00:50:17;;;;;;;15.10;11.25;;;;;;;;;;5135303;27;20231;-62
2021/03/05 00:52:43;;;;;;;14.55;10.68;;;;;;;;;;5134319;27;20208;-62
2021/03/05 00:55:12;;;;;;;18.33;12.00;;;;;;;;;;5135023;27;20222;-62
2021/03/05 00:57:40;;;;;;;15.23;11.32;;;;;;;;;;5134572;27;20187;-62
2021/03/05 01:00:08;;;;;;;14.75;10.43;;;;;;;;;;5135078;27;20283;-62
2021/03/05 01:02:35;;;;;;;20.00;12.85;;;;;;;;;;5134263;27;20669;-62
2021/03/05 01:05:01;;;;;;;16.10;13.10;;;;;;;;;;5132299;27;20188;-62
2021/03/05 01:07:29;;;;;;;15.60;11.10;;;;;;;;;;5134735;27;20574;-62
2021/03/05 01:09:56;;;;;;;18.83;12.73;;;;;;;;;;5134384;27;20207;-61
2021/03/05 01:12:22;;;;;;;16.33;11.43;;;;;;;;;;5134087;27;20216;-62
2021/03/05 01:14:49;;;;;;;17.30;11.57;;;;;;;;;;5134585;27;20188;-61
2021/03/05 01:17:16;;;;;;;14.95;11.63;;;;;;;;;;5134833;27;20713;-61
2021/03/05 01:19:43;;;;;;;15.85;12.52;;;;;;;;;;5134491;27;20192;-61
2021/03/05 01:22:10;;;;;;;15.38;11.07;;;;;;;;;;5134617;27;20203;-62
2021/03/05 01:24:37;;;;;;;17.30;12.25;;;;;;;;;;5134527;28;20286;-61
2021/03/05 01:27:04;;;;;;;15.52;11.93;;;;;;;;;;5134558;28;20214;-61
2021/03/05 01:29:31;;;;;;;17.05;11.52;;;;;;;;;;5134163;28;20188;-61
2021/03/05 01:31:58;;;;;;;17.67;12.35;;;;;;;;;;5134749;28;20229;-61
2021/03/05 01:34:25;;;;;;;15.88;11.95;;;;;;;;;;5133763;28;20188;-63
2021/03/05 01:36:51;;;;;;;16.92;10.27;;;;;;;;;;5133464;28;20210;-62
2021/03/05 01:39:18;;;;;;;14.45;11.15;;;;;;;;;;5134205;28;20313;-62
2021/03/05 01:41:45;;;;;;;9.82;8.93;;;;;;;;;;5134115;28;20207;-61
2021/03/05 01:44:13;;;;;;;12.13;9.52;;;;;;;;;;5134569;27;20192;-61
2021/03/05 01:46:40;;;;;;;11.13;8.57;;;;;;;;;;5138098;27;20199;-62
2021/03/05 01:49:07;;;;;;;12.95;10.27;;;;;;;;;;5138541;27;20195;-61
2021/03/05 01:51:34;;;;;;;10.30;8.20;;;;;;;;;;5138086;27;20245;-61
2021/03/05 01:54:01;;;;;;;11.23;8.75;;;;;;;;;;5120027;27;20188;-62
2021/03/05 01:56:45;;;;;;;11.45;8.63;;;;;;;;;;5138094;27;20196;-62
2021/03/05 01:59:13;;;;;;;16.52;9.20;;;;;;;;;;5138157;27;20184;-62
2021/03/05 02:01:40;;;;;;;9.23;7.50;;;;;;;;;;5138049;27;20196;-62
2021/03/05 02:04:09;;;;;;;10.65;6.95;;;;;;;;;;5138383;27;20198;-62
2021/03/05 02:06:36;;;;;;;7.00;6.18;;;;;;;;;;5136870;27;20603;-62
2021/03/05 02:09:03;;;;;;;8.35;6.20;;;;;;;;;;5138051;27;20275;-62
2021/03/05 02:11:30;;;;;;;9.38;5.70;;;;;;;;;;5137710;27;20202;-62
2021/03/05 02:13:58;;;;;;;6.47;5.60;;;;;;;;;;5137515;27;20671;-61
2021/03/05 02:16:32;;;;;;;7.32;5.50;;;;;;;;;;5137983;27;20632;-61
2021/03/05 02:19:01;;;;;;;7.10;5.65;;;;;;;;;;5137923;27;20185;-61
2021/03/05 02:21:39;;;;;;;8.77;4.50;;;;;;;;;;5138480;27;20197;-61
2021/03/05 02:24:10;;;;;;;5.07;4.25;;;;;;;;;;5137321;27;20188;-61
2021/03/05 02:26:54;;;;;;;5.18;4.68;;;;;;;;;;5138646;27;20204;-61
2021/03/05 02:29:36;;;;;;;4.90;3.97;;;;;;;;;;5138317;27;20184;-61
2021/03/05 02:32:05;;;;;;;3.75;3.30;;;;;;;;;;5137547;27;20214;-62
2021/03/05 02:34:34;;;;;;;4.97;3.90;;;;;;;;;;5137015;27;20196;-62
2021/03/05 02:37:03;;;;;;;5.47;3.33;;;;;;;;;;5135358;27;20447;-62
2021/03/05 02:39:31;;;;;;;6.63;3.17;;;;;;;;;;5137286;27;20203;-62
2021/03/05 02:42:00;;;;;;;3.13;2.80;;;;;;;;;;5137154;27;20200;-62
2021/03/05 02:44:28;;;;;;;9.73;3.47;;;;;;;;;;5137367;27;20230;-61
2021/03/05 02:46:57;;;;;;;5.45;3.00;;;;;;;;;;5137092;27;20198;-62
2021/03/05 02:49:26;;;;;;;4.47;3.63;;;;;;;;;;5137957;27;20196;-61
2021/03/05 02:51:53;;;;;;;4.75;3.60;;;;;;;;;;5137222;27;20247;-62
2021/03/05 02:54:20;;;;;;;6.22;2.85;;;;;;;;;;5137228;27;20195;-62
2021/03/05 02:56:48;;;;;;;5.28;3.25;;;;;;;;;;5135832;27;20196;-62
2021/03/05 02:59:14;;;;;;;5.13;3.42;;;;;;;;;;5136765;27;20198;-62
2021/03/05 03:01:45;;;;;;;5.55;3.20;;;;;;;;;;5136050;27;20256;-62
2021/03/05 03:04:12;;;;;;;4.00;2.97;;;;;;;;;;5136870;27;20191;-61
2021/03/05 03:06:40;;;;;;;2.88;2.55;;;;;;;;;;5136832;27;20287;-61
2021/03/05 03:09:07;;;;;;;4.82;2.58;;;;;;;;;;5137357;27;20187;-61
2021/03/05 03:11:34;;;;;;;3.30;3.00;;;;;;;;;;5136226;27;20657;-61
2021/03/05 03:14:01;;;;;;;3.20;2.85;;;;;;;;;;5136239;27;20240;-62
2021/03/05 03:16:29;;;;;;;5.18;2.70;;;;;;;;;;5136824;27;20188;-61
2021/03/05 03:18:56;;;;;;;5.15;3.03;;;;;;;;;;5137122;27;20564;-62
2021/03/05 03:21:23;;;;;;;3.17;2.90;;;;;;;;;;5136437;27;20204;-62
2021/03/05 03:23:51;;;;;;;4.47;2.47;;;;;;;;;;5136422;27;20199;-61
2021/03/05 03:26:17;;;;;;;4.20;2.75;;;;;;;;;;5136135;27;20286;-61
2021/03/05 03:28:44;;;;;;;3.90;2.70;;;;;;;;;;5136866;27;20195;-61
2021/03/05 03:31:15;;;;;;;4.93;2.80;;;;;;;;;;5136876;27;20200;-61
2021/03/05 03:33:41;;;;;;;2.47;2.25;;;;;;;;;;5133961;27;20214;-61
2021/03/05 03:36:08;;;;;;;4.03;2.75;;;;;;;;;;5135433;27;20649;-61
2021/03/05 03:38:35;;;;;;;6.10;2.97;;;;;;;;;;5135632;27;20195;-61
2021/03/05 03:41:03;;;;;;;2.75;2.55;;;;;;;;;;5136483;27;20220;-61
2021/03/05 03:43:30;;;;;;;2.60;2.40;;;;;;;;;;5136292;27;20608;-62
2021/03/05 03:45:57;;;;;;;4.75;2.90;;;;;;;;;;5135845;27;20200;-62
2021/03/05 03:48:24;;;;;;;3.92;2.45;;;;;;;;;;5136170;27;20205;-61
2021/03/05 03:50:53;;;;;;;3.10;2.45;;;;;;;;;;5136272;27;20194;-61
2021/03/05 03:53:21;;;;;;;2.55;2.20;;;;;;;;;;5136050;27;20215;-61
2021/03/05 03:55:50;;;;;;;2.67;2.28;;;;;;;;;;5135506;27;20201;-61
2021/03/05 03:58:18;;;;;;;5.18;2.75;;;;;;;;;;5135727;27;20664;-61
2021/03/05 04:00:45;;;;;;;7.40;2.35;;;;;;;;;;5135698;27;20188;-61
2021/03/05 04:03:12;;;;;;;4.05;2.83;;;;;;;;;;5136019;27;20192;-62
2021/03/05 04:05:43;;;;;;;3.05;2.35;;;;;;;;;;5135577;27;20200;-61
2021/03/05 04:08:10;;;;;;;4.88;2.45;;;;;;;;;;5133685;27;20220;-61
2021/03/05 04:10:37;;;;;;;5.57;2.85;;;;;;;;;;5135230;27;20213;-62
2021/03/05 04:13:04;;;;;;;9.05;3.10;;;;;;;;;;5135377;27;20389;-62
2021/03/05 04:15:32;;;;;;;3.78;2.63;;;;;;;;;;5135207;27;20198;-62
2021/03/05 04:17:59;;;;;;;5.07;2.25;;;;;;;;;;5135412;27;20197;-62
2021/03/05 04:20:26;;;;;;;5.35;3.00;;;;;;;;;;5135580;27;20203;-62
2021/03/05 04:22:53;;;;;;;5.10;2.10;;;;;;;;;;5135605;27;20206;-62
2021/03/05 04:25:20;;;;;;;4.82;2.45;;;;;;;;;;5134475;27;20196;-61
2021/03/05 04:27:47;;;;;;;4.88;2.55;;;;;;;;;;5135469;27;20547;-61
2021/03/05 04:30:14;;;;;;;3.22;2.92;;;;;;;;;;5135529;27;20192;-61
2021/03/05 04:32:42;;;;;;;3.55;2.38;;;;;;;;;;5135365;27;20222;-62
2021/03/05 04:35:10;;;;;;;5.20;2.38;;;;;;;;;;5134947;27;20677;-61
2021/03/05 04:37:37;;;;;;;2.13;2.03;;;;;;;;;;5134438;27;20240;-61
2021/03/05 04:40:04;;;;;;;3.60;2.58;;;;;;;;;;5135185;27;20195;-62
2021/03/05 04:42:31;;;;;;;5.75;2.85;;;;;;;;;;5134870;27;20653;-61
2021/03/05 04:44:58;;;;;;;3.10;2.45;;;;;;;;;;5135387;27;20557;-61
2021/03/05 04:47:24;;;;;;;5.85;2.70;;;;;;;;;;5135077;27;20201;-62
2021/03/05 04:49:52;;;;;;;4.68;2.47;;;;;;;;;;5134760;27;20237;-61
2021/03/05 04:52:19;;;;;;;5.90;2.55;;;;;;;;;;5134890;27;20222;-62
2021/03/05 04:54:45;;;;;;;7.07;4.80;;;;;;;;;;5133026;27;20649;-61
2021/03/05 04:57:12;;;;;;;3.35;2.20;;;;;;;;;;5134682;27;20192;-61
2021/03/05 04:59:39;;;;;;;7.07;3.17;;;;;;;;;;5134865;27;20195;-62
2021/03/05 05:02:05;;;;;;;3.20;2.90;;;;;;;;;;5134211;27;20204;-61
2021/03/05 05:04:32;;;;;;;8.23;2.60;;;;;;;;;;5134955;27;20199;-63
2021/03/05 05:07:00;;;;;;;3.60;2.50;;;;;;;;;;5133903;27;20678;-64
2021/03/05 05:09:26;;;;;;;2.53;2.20;;;;;;;;;;5134408;27;20203;-63
2021/03/05 05:11:53;;;;;;;4.10;2.50;;;;;;;;;;5134302;27;20713;-62
2021/03/05 05:14:20;;;;;;;5.75;2.95;;;;;;;;;;5134102;27;20283;-62
2021/03/05 05:16:46;;;;;;;2.50;2.25;;;;;;;;;;5134276;27;20201;-62
2021/03/05 05:19:13;;;;;;;6.05;2.80;;;;;;;;;;5133693;27;20616;-62
2021/03/05 05:21:40;;;;;;;10.57;2.90;;;;;;;;;;5133805;27;20188;-63
2021/03/05 05:24:08;;;;;;;2.25;2.05;;;;;;;;;;5133610;27;20247;-63
2021/03/05 05:26:35;;;;;;;2.50;2.30;;;;;;;;;;5133345;27;20294;-63
2021/03/05 05:29:01;;;;;;;7.03;2.85;;;;;;;;;;5133956;28;20199;-63
2021/03/05 05:31:28;;;;;;;2.13;1.92;;;;;;;;;;5134068;28;20199;-63
2021/03/05 05:33:55;;;;;;;3.80;2.40;;;;;;;;;;5133544;28;20216;-62
2021/03/05 05:36:21;;;;;;;2.08;1.98;;;;;;;;;;5132007;28;20192;-63
2021/03/05 05:38:48;;;;;;;3.92;2.50;;;;;;;;;;5133962;28;20272;-62
2021/03/05 05:41:16;;;;;;;2.55;2.35;;;;;;;;;;5134727;28;20203;-63
2021/03/05 05:43:43;;;;;;;4.05;3.65;;;;;;;;;;5133954;28;20191;-63
2021/03/05 05:46:10;;;;;;;3.22;2.92;;;;;;;;;;5133269;28;20726;-63
2021/03/05 05:48:37;;;;;;;7.80;2.33;;;;;;;;;;5133410;28;20202;-63
2021/03/05 05:51:04;;;;;;;3.08;2.78;;;;;;;;;;5133830;28;20545;-63
2021/03/05 05:53:32;;;;;;;6.97;2.88;;;;;;;;;;5133670;28;20230;-62
2021/03/05 05:55:59;;;;;;;3.33;3.00;;;;;;;;;;5133235;28;20744;-62
2021/03/05 05:58:28;;;;;;;3.15;2.17;;;;;;;;;;5133642;28;20199;-63
2021/03/05 06:00:55;;;;;;;2.30;2.10;;;;;;;;;;5133405;28;20244;-63
2021/03/05 06:03:24;;;;;;;2.70;2.50;;;;;;;;;;5133344;28;20206;-63
2021/03/05 06:05:50;;;;;;;3.08;2.25;;;;;;;;;;5134056;28;20200;-63
2021/03/05 06:08:18;;;;;;;4.50;3.40;;;;;;;;;;5133521;28;20329;-63
2021/03/05 06:10:44;;;;;;;4.60;2.85;;;;;;;;;;5133691;28;20195;-63
2021/03/05 06:13:12;;;;;;;4.57;2.55;;;;;;;;;;5132734;28;20212;-63
2021/03/05 06:15:40;;;;;;;7.35;2.58;;;;;;;;;;5133786;28;20706;-63
2021/03/05 06:18:07;;;;;;;5.40;3.20;;;;;;;;;;5133364;28;20196;-64
2021/03/05 06:20:47;;;;;;;4.05;2.60;;;;;;;;;;5133980;28;20239;-63
2021/03/05 06:23:14;;;;;;;5.60;2.28;;;;;;;;;;5134066;28;20242;-62
2021/03/05 06:25:41;;;;;;;2.95;2.63;;;;;;;;;;5132766;28;20193;-63
2021/03/05 06:28:11;;;;;;;5.63;3.00;;;;;;;;;;5132558;28;20290;-63
2021/03/05 06:30:38;;;;;;;3.65;2.75;;;;;;;;;;5133577;27;20237;-63
2021/03/05 06:33:21;;;;;;;4.55;2.53;;;;;;;;;;5136320;27;20216;-63
2021/03/05 06:35:48;;;;;;;3.28;2.28;;;;;;;;;;5137701;27;20181;-62
2021/03/05 06:38:38;;;;;;;3.50;3.20;;;;;;;;;;5137669;27;20590;-63
2021/03/05 06:41:18;;;;;;;6.72;3.20;;;;;;;;;;5137238;27;20645;-67
2021/03/05 06:43:45;;;;;;;6.70;3.45;;;;;;;;;;5137182;27;20808;-63
2021/03/05 06:46:29;;;;;;;6.30;2.97;;;;;;;;;;5137338;27;20598;-63
2021/03/05 06:48:56;;;;;;;3.50;2.67;;;;;;;;;;5137333;27;20288;-63
2021/03/05 06:51:23;;;;;;;6.35;2.63;;;;;;;;;;5137618;27;20196;-63
2021/03/05 06:53:50;;;;;;;5.75;2.92;;;;;;;;;;5137434;27;20219;-63
2021/03/05 06:56:26;;;;;;;3.03;2.53;;;;;;;;;;5137377;27;20282;-63
2021/03/05 06:59:00;;;;;;;3.15;2.63;;;;;;;;;;5137795;27;20195;-62
2021/03/05 07:01:27;;;;;;;4.20;2.78;;;;;;;;;;5137071;27;20672;-62
2021/03/05 07:04:14;;;;;;;5.00;2.70;;;;;;;;;;5137600;27;20240;-62
2021/03/05 07:06:41;;;;;;;7.28;3.22;;;;;;;;;;5137194;27;20184;-62
2021/03/05 07:09:09;;;;;;;3.33;2.70;;;;;;;;;;5137424;27;20271;-64
2021/03/05 07:11:40;;;;;;;4.75;2.75;;;;;;;;;;5136628;27;20279;-64
2021/03/05 07:14:08;;;;;;;3.33;2.67;;;;;;;;;;5137262;27;20219;-63
2021/03/05 07:16:43;;;;;;;3.38;2.50;;;;;;;;;;5136848;27;20192;-63
2021/03/05 07:19:10;;;;;;;6.13;3.05;;;;;;;;;;5136497;27;20180;-63
2021/03/05 07:21:39;;;;;;;2.88;2.65;;;;;;;;;;5136591;27;20282;-63
2021/03/05 07:24:10;;;;;;;2.88;2.40;;;;;;;;;;5136875;27;20192;-63
2021/03/05 07:26:43;;;;;;;5.55;2.78;;;;;;;;;;5137018;27;20263;-63
2021/03/05 07:29:17;;;;;;;2.75;2.55;;;;;;;;;;5136249;27;20191;-63
2021/03/05 07:31:44;;;;;;;2.85;2.65;;;;;;;;;;5136574;27;20248;-63
2021/03/05 07:34:14;;;;;;;5.05;2.67;;;;;;;;;;5136349;27;20654;-62
2021/03/05 07:36:44;;;;;;;7.93;3.05;;;;;;;;;;5136363;27;20347;-64
2021/03/05 07:39:12;;;;;;;12.57;5.03;;;;;;;;;;5135966;27;20184;-63
2021/03/05 07:41:39;;;;;;;4.45;3.08;;;;;;;;;;5135877;27;20284;-63
2021/03/05 07:44:06;;;;;;;8.32;3.20;;;;;;;;;;5135259;27;20702;-63
2021/03/05 07:46:33;;;;;;;3.75;2.50;;;;;;;;;;5135728;27;20199;-64
2021/03/05 07:49:00;;;;;;;3.15;2.85;;;;;;;;;;5136570;27;20192;-64
2021/03/05 07:51:33;;;;;;;2.60;2.40;;;;;;;;;;5136354;27;20191;-63
2021/03/05 07:54:01;;;;;;;4.30;3.25;;;;;;;;;;5136590;27;20202;-64
2021/03/05 07:56:41;;;;;;;8.13;2.78;;;;;;;;;;5135714;27;20189;-63
2021/03/05 07:59:45;;;;;;;4.65;2.60;;;;;;;;;;5135910;27;20238;-64
2021/03/05 08:02:12;;;;;;;5.65;2.88;;;;;;;;;;5135847;27;20192;-64
2021/03/05 08:05:04;;;;;;;4.75;2.83;;;;;;;;;;5136580;27;20533;-65
2021/03/05 08:07:32;;;;;;;6.75;3.55;;;;;;;;;;5135625;27;20224;-64
2021/03/05 08:10:00;;;;;;;3.47;2.75;;;;;;;;;;5135564;27;20207;-65
2021/03/05 08:12:38;;;;;;;2.38;2.10;;;;;;;;;;5135351;27;20212;-64
2021/03/05 08:15:24;;;;;;;4.82;2.35;;;;;;;;;;5135417;27;20291;-63
2021/03/05 08:17:51;;;;;;;2.92;2.72;;;;;;;;;;5135195;27;20278;-63
2021/03/05 08:20:41;;;;;;;3.95;2.80;;;;;;;;;;5135178;27;20305;-64
2021/03/05 08:23:09;;;;;;;3.05;2.60;;;;;;;;;;5135153;27;20271;-63
2021/03/05 08:25:39;;;;;;;5.60;2.70;;;;;;;;;;5134941;27;20198;-63
2021/03/05 08:28:07;;;;;;;7.30;4.30;;;;;;;;;;5135251;27;20191;-64
2021/03/05 08:30:42;;;;;;;4.43;3.17;;;;;;;;;;5135166;27;20279;-64
2021/03/05 08:33:09;;;;;;;3.92;2.35;;;;;;;;;;5135626;27;20249;-64
2021/03/05 08:35:46;;;;;;;7.80;2.55;;;;;;;;;;5134825;27;20324;-64
2021/03/05 08:38:15;;;;;;;6.18;2.53;;;;;;;;;;5134863;27;20192;-64
2021/03/05 08:40:49;;;;;;;4.82;2.10;;;;;;;;;;5135350;27;20599;-64
2021/03/05 08:43:17;;;;;;;6.18;2.80;;;;;;;;;;5135001;27;20299;-64
2021/03/05 08:45:45;;;;;;;4.32;2.83;;;;;;;;;;5135197;27;20195;-64
2021/03/05 08:48:15;;;;;;;5.13;2.72;;;;;;;;;;5136597;27;20514;-63
2021/03/05 08:50:42;;;;;;;7.55;2.58;;;;;;;;;;5135686;27;20188;-64
2021/03/05 08:53:11;;;;;;;4.13;2.25;;;;;;;;;;5134527;27;20212;-64
2021/03/05 08:55:38;;;;;;;6.38;2.65;;;;;;;;;;5133932;27;20202;-64
2021/03/05 08:58:06;;;;;;;5.05;2.60;;;;;;;;;;5134487;27;20196;-63
2021/03/05 09:00:34;;;;;;;5.75;3.20;;;;;;;;;;5134525;27;20200;-63
2021/03/05 09:03:05;;;;;;;3.67;2.28;;;;;;;;;;5135102;27;20200;-63
2021/03/05 09:05:33;;;;;;;4.13;3.70;;;;;;;;;;5134655;27;20196;-64
2021/03/05 09:08:00;;;;;;;4.55;3.10;;;;;;;;;;5134523;27;20220;-64
2021/03/05 09:10:41;;;;;;;3.95;2.70;;;;;;;;;;5134645;27;20227;-64
2021/03/05 09:13:09;;;;;;;5.95;2.97;;;;;;;;;;5134538;27;20247;-64
2021/03/05 09:15:39;;;;;;;5.75;2.97;;;;;;;;;;5134634;27;20222;-64
2021/03/05 09:18:06;;;;;;;5.50;2.88;;;;;;;;;;5135188;27;20644;-64
2021/03/05 09:20:43;;;;;;;5.85;2.30;;;;;;;;;;5134314;27;20188;-63
2021/03/05 09:23:16;;;;;;;3.35;2.35;;;;;;;;;;5135005;27;20329;-64
2021/03/05 09:25:47;;;;;;;5.70;3.80;;;;;;;;;;5135460;27;20223;-63
2021/03/05 09:28:15;;;;;;;2.42;2.20;;;;;;;;;;5135129;27;20270;-64
2021/03/05 09:30:46;;;;;;;4.18;3.20;;;;;;;;;;5138497;28;20200;-63
2021/03/05 09:33:13;;;;;;;8.07;3.10;;;;;;;;;;5134593;28;20208;-63
2021/03/05 09:35:40;;;;;;;13.55;7.45;;;;;;;;;;5134303;28;20310;-64
2021/03/05 09:38:07;;;;;;;8.25;2.47;;;;;;;;;;5133936;28;20192;-64
2021/03/05 09:40:34;;;;;;;2.78;2.13;;;;;;;;;;5133993;28;20192;-63
2021/03/05 09:43:02;;;;;;;7.20;4.25;;;;;;;;;;5134333;28;20226;-66
2021/03/05 09:45:40;;;;;;;3.17;2.35;;;;;;;;;;5134656;28;20283;-64
2021/03/05 09:48:07;;;;;;;3.33;2.17;;;;;;;;;;5135443;28;20191;-63
2021/03/05 09:50:34;;;;;;;4.38;1.95;;;;;;;;;;5134568;28;20233;-64
2021/03/05 09:53:16;;;;;;;5.03;2.60;;;;;;;;;;5134583;28;20577;-64
2021/03/05 09:55:50;;;;;;;3.70;2.45;;;;;;;;;;5133740;28;20286;-64
2021/03/05 09:58:17;;;;;;;2.22;2.03;;;;;;;;;;5134808;28;20181;-64
2021/03/05 10:00:45;;;;;;;3.20;2.10;;;;;;;;;;5134254;28;20257;-64
2021/03/05 10:03:12;;;;;;;4.90;2.58;;;;;;;;;;5134422;28;20196;-64
2021/03/05 10:05:40;;;;;;;3.42;1.83;;;;;;;;;;5135192;27;20219;-64
2021/03/05 10:08:16;;;;;;;3.67;2.33;;;;;;;;;;5137949;27;20229;-64
2021/03/05 10:10:56;;;;;;;3.75;2.03;;;;;;;;;;5137840;27;20215;-64
2021/03/05 10:13:22;;;;;;;5.70;3.20;;;;;;;;;;5137685;27;20310;-64
2021/03/05 10:15:51;;;;;;;2.15;1.73;;;;;;;;;;5137687;27;20196;-62
2021/03/05 10:18:17;;;;;;;3.13;1.90;;;;;;;;;;5138553;27;20199;-63
2021/03/05 10:20:51;;;;;;;3.80;2.45;;;;;;;;;;5138095;27;20626;-63
2021/03/05 10:23:18;;;;;;;5.60;2.25;;;;;;;;;;5138300;27;20184;-63
2021/03/05 10:25:49;;;;;;;3.92;2.05;;;;;;;;;;5138279;27;20287;-64
2021/03/05 10:28:16;;;;;;;2.33;1.90;;;;;;;;;;5142999;27;20180;-65
2021/03/05 10:30:50;;;;;;;2.33;2.00;;;;;;;;;;5143014;27;20196;-64
2021/03/05 10:33:32;;;;;;;6.40;2.03;;;;;;;;;;5142277;27;20208;-63
2021/03/05 10:35:58;;;;;;;2.58;2.10;;;;;;;;;;5140133;27;20716;-63
2021/03/05 10:38:25;;;;;;;1.95;1.60;;;;;;;;;;5139497;27;20291;-65
2021/03/05 10:40:53;;;;;;;2.72;2.35;;;;;;;;;;5139317;27;20292;-64
2021/03/05 10:43:20;;;;;;;1.80;1.70;;;;;;;;;;5137226;27;20196;-63
2021/03/05 10:45:46;;;;;;;2.20;2.00;;;;;;;;;;5137713;27;20266;-63
2021/03/05 10:48:14;;;;;;;4.47;1.80;;;;;;;;;;5137210;27;20280;-64
2021/03/05 10:50:41;;;;;;;1.90;1.80;;;;;;;;;;5136940;27;20279;-63
2021/03/05 10:53:07;;;;;;;2.17;1.92;;;;;;;;;;5137137;27;20216;-64
2021/03/05 10:55:34;;;;;;;3.20;1.90;;;;;;;;;;5136798;27;20287;-63
2021/03/05 10:58:01;;;;;;;2.72;2.47;;;;;;;;;;5137127;27;20283;-64
2021/03/05 11:00:28;;;;;;;3.30;2.47;;;;;;;;;;5137064;27;20279;-63
2021/03/05 11:02:55;;;;;;;4.93;2.20;;;;;;;;;;5136928;27;20286;-64
2021/03/05 11:05:23;;;;;;;3.08;1.65;;;;;;;;;;5137074;27;20292;-63
2021/03/05 11:07:51;;;;;;;3.60;2.13;;;;;;;;;;5136637;27;20255;-63
2021/03/05 11:10:18;;;;;;;5.00;2.10;;;;;;;;;;5136806;27;20200;-64
2021/03/05 11:12:44;;;;;;;1.90;1.80;;;;;;;;;;5136297;27;20300;-63
2021/03/05 11:15:11;;;;;;;2.30;1.83;;;;;;;;;;5136717;27;20188;-63
2021/03/05 11:17:38;;;;;;;2.00;1.77;;;;;;;;;;5135580;27;20638;-63
2021/03/05 11:20:06;;;;;;;2.22;1.90;;;;;;;;;;5136728;27;20236;-63
2021/03/05 11:22:34;;;;;;;5.07;1.75;;;;;;;;;;5136925;27;20192;-64
2021/03/05 11:25:00;;;;;;;5.47;1.70;;;;;;;;;;5137065;27;20188;-63
2021/03/05 11:27:27;;;;;;;1.73;1.50;;;;;;;;;;5136726;27;20192;-63
2021/03/05 11:29:54;;;;;;;1.50;1.40;;;;;;;;;;5136184;27;20228;-63
2021/03/05 11:32:20;;;;;;;2.70;1.85;;;;;;;;;;5136240;27;20336;-64
2021/03/05 11:34:47;;;;;;;2.65;1.80;;;;;;;;;;5136429;27;20224;-64
2021/03/05 11:37:14;;;;;;;1.83;1.73;;;;;;;;;;5136032;27;20192;-63
2021/03/05 11:39:41;;;;;;;4.70;1.55;;;;;;;;;;5136754;27;20199;-64
2021/03/05 11:42:08;;;;;;;13.07;1.90;;;;;;;;;;5136231;27;20196;-63
2021/03/05 11:44:35;;;;;;;1.95;1.55;;;;;;;;;;5136426;27;20291;-63
2021/03/05 11:47:02;;;;;;;3.15;1.48;;;;;;;;;;5137068;27;20228;-63
2021/03/05 11:49:28;;;;;;;4.18;2.13;;;;;;;;;;5136104;27;20314;-64
2021/03/05 11:51:55;;;;;;;1.40;1.30;;;;;;;;;;5136107;27;20608;-63
2021/03/05 11:54:22;;;;;;;1.60;1.45;;;;;;;;;;5136546;27;20248;-64
2021/03/05 11:56:49;;;;;;;4.32;1.67;;;;;;;;;;5135561;27;20279;-63
2021/03/05 11:59:16;;;;;;;3.45;3.15;;;;;;;;;;5135960;27;20593;-63
2021/03/05 12:01:43;;;;;;;2.63;1.60;;;;;;;;;;5136444;27;20188;-63
2021/03/05 12:04:10;;;;;;;3.42;1.40;;;;;;;;;;5136131;27;20202;-63
2021/03/05 12:06:36;;;;;;;2.70;1.85;;;;;;;;;;5135400;27;20195;-64
2021/03/05 12:09:04;;;;;;;1.88;1.70;;;;;;;;;;5136120;27;20296;-63
2021/03/05 12:11:37;;;;;;;1.83;1.50;;;;;;;;;;5135616;27;20292;-65
2021/03/05 12:14:05;;;;;;;1.60;1.50;;;;;;;;;;5135725;27;20244;-64
2021/03/05 12:16:32;;;;;;;2.80;1.85;;;;;;;;;;5135289;27;20228;-64
2021/03/05 12:18:59;;;;;;;3.08;1.83;;;;;;;;;;5135595;27;20587;-64
2021/03/05 12:21:26;;;;;;;2.65;1.35;;;;;;;;;;5135093;27;20193;-64
2021/03/05 12:23:52;;;;;;;1.90;1.80;;;;;;;;;;5135790;27;20231;-63
2021/03/05 12:26:19;;;;;;;1.60;1.50;;;;;;;;;;5135569;27;20193;-65
2021/03/05 12:28:47;;;;;;;1.73;1.50;;;;;;;;;;5134597;27;20203;-64
2021/03/05 12:31:14;;;;;;;2.55;1.33;;;;;;;;;;5134991;27;20664;-63
2021/03/05 12:33:43;;;;;;;1.70;1.60;;;;;;;;;;5134851;27;20218;-64
2021/03/05 12:36:10;;;;;;;1.30;1.20;;;;;;;;;;5135169;27;20240;-64
2021/03/05 12:38:37;;;;;;;1.38;1.30;;;;;;;;;;5135059;27;20559;-65
2021/03/05 12:41:04;;;;;;;1.35;1.25;;;;;;;;;;5134838;27;20197;-63
2021/03/05 12:43:31;;;;;;;1.58;1.48;;;;;;;;;;5135153;27;20623;-63
2021/03/05 12:45:57;;;;;;;3.30;1.63;;;;;;;;;;5135122;27;20241;-63
2021/03/05 12:48:25;;;;;;;3.17;2.20;;;;;;;;;;5134498;27;20188;-63
2021/03/05 12:50:52;;;;;;;1.92;1.40;;;;;;;;;;5134641;27;20231;-63
2021/03/05 12:53:18;;;;;;;1.42;1.33;;;;;;;;;;5134845;27;20564;-63
2021/03/05 12:55:45;;;;;;;1.60;1.40;;;;;;;;;;5135258;27;20740;-64
2021/03/05 12:58:12;;;;;;;1.55;1.45;;;;;;;;;;5134751;27;20382;-64
2021/03/05 13:00:39;;;;;;;1.40;1.30;;;;;;;;;;5134465;27;20774;-63
2021/03/05 13:03:06;;;;;;;2.28;1.40;;;;;;;;;;5134724;27;20260;-63
2021/03/05 13:05:33;;;;;;;2.45;1.40;;;;;;;;;;5135199;27;20228;-63
2021/03/05 13:08:00;;;;;;;2.08;1.70;;;;;;;;;;5134548;27;20311;-63
2021/03/05 13:10:27;;;;;;;1.75;1.65;;;;;;;;;;5134459;27;20299;-63
2021/03/05 13:12:54;;;;;;;1.67;1.58;;;;;;;;;;5134059;27;20216;-63
2021/03/05 13:15:21;;;;;;;2.20;1.63;;;;;;;;;;5134267;27;20192;-64
2021/03/05 13:17:48;;;;;;;2.30;1.50;;;;;;;;;;5134718;27;20287;-64
2021/03/05 13:20:15;;;;;;;2.20;1.67;;;;;;;;;;5134929;27;20275;-64
2021/03/05 13:22:42;;;;;;;1.85;1.40;;;;;;;;;;5134113;27;20279;-64
2021/03/05 13:25:12;;;;;;;1.52;1.45;;;;;;;;;;5134627;27;20235;-64
2021/03/05 13:27:39;;;;;;;4.95;2.70;;;;;;;;;;5134347;27;20231;-64
2021/03/05 13:30:06;;;;;;;3.03;1.98;;;;;;;;;;5134039;27;20202;-64
2021/03/05 13:32:33;;;;;;;7.05;2.47;;;;;;;;;;5134422;28;20199;-64
2021/03/05 13:34:59;;;;;;;4.45;1.70;;;;;;;;;;5134487;28;20192;-64
2021/03/05 13:37:26;;;;;;;2.50;1.88;;;;;;;;;;5134526;28;20192;-65
2021/03/05 13:39:54;;;;;;;2.53;1.55;;;;;;;;;;5134417;27;20283;-64
2021/03/05 13:42:21;;;;;;;5.38;1.50;;;;;;;;;;5138230;27;20202;-64
2021/03/05 13:44:48;;;;;;;1.70;1.20;;;;;;;;;;5138019;27;20446;-65
2021/03/05 13:47:15;;;;;;;3.28;1.58;;;;;;;;;;5138752;27;20191;-64
2021/03/05 13:49:41;;;;;;;2.15;1.83;;;;;;;;;;5138024;27;20196;-65
2021/03/05 13:52:08;;;;;;;10.30;5.20;;;;;;;;;;5138190;27;20326;-64
2021/03/05 13:54:36;;;;;;;1.98;1.70;;;;;;;;;;5138454;27;20241;-66
2021/03/05 13:57:04;;;;;;;2.00;1.90;;;;;;;;;;5136117;27;20280;-65
2021/03/05 13:59:31;;;;;;;3.60;1.73;;;;;;;;;;5138009;27;20287;-64
2021/03/05 14:01:58;;;;;;;2.08;1.33;;;;;;;;;;5137818;27;20283;-63
2021/03/05 14:04:25;;;;;;;3.58;1.58;;;;;;;;;;5137912;27;20203;-65
2021/03/05 14:06:51;;;;;;;1.83;1.40;;;;;;;;;;5137755;27;20287;-64
2021/03/05 14:09:18;;;;;;;1.70;1.30;;;;;;;;;;5137523;27;20224;-64
2021/03/05 14:11:45;;;;;;;1.30;1.20;;;;;;;;;;5137545;27;20337;-64
2021/03/05 14:14:12;;;;;;;6.28;1.42;;;;;;;;;;5137573;27;20553;-64
2021/03/05 14:16:39;;;;;;;2.20;1.25;;;;;;;;;;5137855;27;20196;-64
2021/03/05 14:19:06;;;;;;;1.30;1.20;;;;;;;;;;5137879;27;20198;-64
2021/03/05 14:21:33;;;;;;;1.23;1.13;;;;;;;;;;5137637;27;20236;-64
2021/03/05 14:23:59;;;;;;;2.03;1.80;;;;;;;;;;5137227;27;20287;-65
2021/03/05 14:26:27;;;;;;;3.53;3.22;;;;;;;;;;5136443;27;20188;-66
2021/03/05 14:28:53;;;;;;;1.70;1.60;;;;;;;;;;5136013;27;20188;-65
2021/03/05 14:31:21;;;;;;;1.30;1.20;;;;;;;;;;5136230;27;20596;-65
2021/03/05 14:33:48;;;;;;;3.30;1.70;;;;;;;;;;5137425;27;20244;-65
2021/03/05 14:36:14;;;;;;;1.50;1.40;;;;;;;;;;5137607;27;20642;-64
2021/03/05 14:38:41;;;;;;;1.52;1.35;;;;;;;;;;5136885;27;20199;-64
2021/03/05 14:41:08;;;;;;;1.45;1.35;;;;;;;;;;5136761;27;20192;-65
2021/03/05 14:43:35;;;;;;;2.65;1.40;;;;;;;;;;5137276;27;20303;-63
2021/03/05 14:46:01;;;;;;;2.40;2.20;;;;;;;;;;5137283;27;20196;-65
2021/03/05 14:48:29;;;;;;;1.40;1.30;;;;;;;;;;5137070;27;20196;-65